sensor_id;sensor_type;location;lat;lon;timestamp;temperature;humidity
1301;DHT22;59099;48.806;9.160;2022-07-21T00:01:23;19.70;99.90
1301;DHT22;59099;48.806;9.160;2022-07-21T00:03:49;19.70;99.90
1301;DHT22;59099;48.806;9.160;2022-07-21T00:06:15;19.70;99.90
1301;DHT22;59099;48.806;9.160;2022-07-21T00:08:41;19.60;99.90
1301;DHT22;59099;48.806;9.160;2022-07-21T00:11:06;19.60;99.90
1301;DHT22;59099;48.806;9.160;2022-07-21T00:13:32;19.70;99.90
1301;DHT22;59099;48.806;9.160;2022-07-21T00:15:58;19.70;99.90
1301;DHT22;59099;48.806;9.160;2022-07-21T00:18:25;19.70;99.90
1301;DHT22;59099;48.806;9.160;2022-07-21T00:20:57;19.70;99.90
1301;DHT22;59099;48.806;9.160;2022-07-21T00:23:24;19.70;99.90
1301;DHT22;59099;48.806;9.160;2022-07-21T00:25:50;19.70;99.90
1301;DHT22;59099;48.806;9.160;2022-07-21T00:28:16;19.60;99.90
1301;DHT22;59099;48.806;9.160;2022-07-21T00:30:42;19.50;99.90
1301;DHT22;59099;48.806;9.160;2022-07-21T00:33:08;19.50;99.90
1301;DHT22;59099;48.806;9.160;2022-07-21T00:35:34;19.50;99.90
1301;DHT22;59099;48.806;9.160;2022-07-21T00:37:59;19.50;99.90
1301;DHT22;59099;48.806;9.160;2022-07-21T00:40:26;19.50;99.90
1301;DHT22;59099;48.806;9.160;2022-07-21T00:42:53;19.60;99.90
1301;DHT22;59099;48.806;9.160;2022-07-21T00:45:19;19.60;99.90
1301;DHT22;59099;48.806;9.160;2022-07-21T00:47:45;19.70;99.90
1301;DHT22;59099;48.806;9.160;2022-07-21T00:50:19;19.70;99.90
1301;DHT22;59099;48.806;9.160;2022-07-21T00:52:45;19.80;99.90
1301;DHT22;59099;48.806;9.160;2022-07-21T00:55:15;19.80;99.90
1301;DHT22;59099;48.806;9.160;2022-07-21T00:57:41;19.80;99.90
1301;DHT22;59099;48.806;9.160;2022-07-21T01:00:11;19.80;99.90
1301;DHT22;59099;48.806;9.160;2022-07-21T01:02:38;19.80;99.90
1301;DHT22;59099;48.806;9.160;2022-07-21T01:05:09;19.80;99.90
1301;DHT22;59099;48.806;9.160;2022-07-21T01:07:47;19.70;99.90
1301;DHT22;59099;48.806;9.160;2022-07-21T01:10:14;19.60;99.90
1301;DHT22;59099;48.806;9.160;2022-07-21T01:12:41;19.50;99.90
1301;DHT22;59099;48.806;9.160;2022-07-21T01:15:09;19.40;99.90
1301;DHT22;59099;48.806;9.160;2022-07-21T01:17:35;19.50;99.90
1301;DHT22;59099;48.806;9.160;2022-07-21T01:20:07;19.50;99.90
1301;DHT22;59099;48.806;9.160;2022-07-21T01:22:35;19.60;99.90
1301;DHT22;59099;48.806;9.160;2022-07-21T01:25:02;19.60;99.90
1301;DHT22;59099;48.806;9.160;2022-07-21T01:27:28;19.70;99.90
1301;DHT22;59099;48.806;9.160;2022-07-21T01:29:55;19.60;99.90
1301;DHT22;59099;48.806;9.160;2022-07-21T01:32:21;19.60;99.90
1301;DHT22;59099;48.806;9.160;2022-07-21T01:34:47;19.60;99.90
1301;DHT22;59099;48.806;9.160;2022-07-21T01:37:13;19.60;99.90
1301;DHT22;59099;48.806;9.160;2022-07-21T01:39:39;19.70;99.90
1301;DHT22;59099;48.806;9.160;2022-07-21T01:42:23;19.70;99.90
1301;DHT22;59099;48.806;9.160;2022-07-21T01:44:49;19.60;99.90
1301;DHT22;59099;48.806;9.160;2022-07-21T01:47:15;19.60;99.90
1301;DHT22;59099;48.806;9.160;2022-07-21T01:49:44;19.60;99.90
1301;DHT22;59099;48.806;9.160;2022-07-21T01:52:10;19.70;99.90
1301;DHT22;59099;48.806;9.160;2022-07-21T01:54:37;19.70;99.90
1301;DHT22;59099;48.806;9.160;2022-07-21T01:57:02;19.70;99.90
1301;DHT22;59099;48.806;9.160;2022-07-21T01:59:28;19.80;99.90
1301;DHT22;59099;48.806;9.160;2022-07-21T02:01:54;19.90;99.90
1301;DHT22;59099;48.806;9.160;2022-07-21T02:04:20;19.90;99.90
1301;DHT22;59099;48.806;9.160;2022-07-21T02:06:46;20.00;99.90
1301;DHT22;59099;48.806;9.160;2022-07-21T02:09:12;19.90;99.90
1301;DHT22;59099;48.806;9.160;2022-07-21T02:11:38;19.80;99.90
1301;DHT22;59099;48.806;9.160;2022-07-21T02:14:04;19.70;99.90
1301;DHT22;59099;48.806;9.160;2022-07-21T02:16:31;19.80;99.90
1301;DHT22;59099;48.806;9.160;2022-07-21T02:18:59;19.80;99.90
1301;DHT22;59099;48.806;9.160;2022-07-21T02:21:25;19.80;99.90
1301;DHT22;59099;48.806;9.160;2022-07-21T02:23:51;19.80;99.90
1301;DHT22;59099;48.806;9.160;2022-07-21T02:26:16;19.80;99.90
1301;DHT22;59099;48.806;9.160;2022-07-21T02:28:43;19.80;99.90
1301;DHT22;59099;48.806;9.160;2022-07-21T02:31:09;19.80;99.90
1301;DHT22;59099;48.806;9.160;2022-07-21T02:33:35;19.80;99.90
1301;DHT22;59099;48.806;9.160;2022-07-21T02:36:01;19.80;99.90
1301;DHT22;59099;48.806;9.160;2022-07-21T02:38:27;19.60;99.90
1301;DHT22;59099;48.806;9.160;2022-07-21T02:40:53;19.60;99.90
1301;DHT22;59099;48.806;9.160;2022-07-21T02:43:19;19.60;99.90
1301;DHT22;59099;48.806;9.160;2022-07-21T02:45:45;19.60;99.90
1301;DHT22;59099;48.806;9.160;2022-07-21T02:48:12;19.60;99.90
1301;DHT22;59099;48.806;9.160;2022-07-21T02:50:40;19.70;99.90
1301;DHT22;59099;48.806;9.160;2022-07-21T02:53:12;19.70;99.90
1301;DHT22;59099;48.806;9.160;2022-07-21T02:55:39;19.70;99.90
1301;DHT22;59099;48.806;9.160;2022-07-21T02:58:37;19.80;99.90
1301;DHT22;59099;48.806;9.160;2022-07-21T03:01:05;19.80;99.90
1301;DHT22;59099;48.806;9.160;2022-07-21T03:03:34;19.70;99.90
1301;DHT22;59099;48.806;9.160;2022-07-21T03:06:00;19.70;99.90
1301;DHT22;59099;48.806;9.160;2022-07-21T03:08:27;19.70;99.90
1301;DHT22;59099;48.806;9.160;2022-07-21T03:10:54;19.80;99.90
1301;DHT22;59099;48.806;9.160;2022-07-21T03:13:20;19.80;99.90
1301;DHT22;59099;48.806;9.160;2022-07-21T03:15:46;19.80;99.90
1301;DHT22;59099;48.806;9.160;2022-07-21T03:18:12;19.90;99.90
1301;DHT22;59099;48.806;9.160;2022-07-21T03:20:40;19.90;99.90
1301;DHT22;59099;48.806;9.160;2022-07-21T03:23:06;20.10;99.90
1301;DHT22;59099;48.806;9.160;2022-07-21T03:25:32;20.10;99.90
1301;DHT22;59099;48.806;9.160;2022-07-21T03:27:58;20.00;99.90
1301;DHT22;59099;48.806;9.160;2022-07-21T03:30:24;20.00;99.90
1301;DHT22;59099;48.806;9.160;2022-07-21T03:32:51;19.90;99.90
1301;DHT22;59099;48.806;9.160;2022-07-21T03:35:18;19.90;99.90
1301;DHT22;59099;48.806;9.160;2022-07-21T03:40:13;19.90;99.90
1301;DHT22;59099;48.806;9.160;2022-07-21T03:42:39;19.90;99.90
1301;DHT22;59099;48.806;9.160;2022-07-21T03:45:07;19.90;99.90
1301;DHT22;59099;48.806;9.160;2022-07-21T03:47:33;19.90;99.90
1301;DHT22;59099;48.806;9.160;2022-07-21T03:49:59;19.90;99.90
1301;DHT22;59099;48.806;9.160;2022-07-21T03:52:24;19.80;99.90
1301;DHT22;59099;48.806;9.160;2022-07-21T03:54:50;19.80;99.90
1301;DHT22;59099;48.806;9.160;2022-07-21T03:57:56;19.80;99.90
1301;DHT22;59099;48.806;9.160;2022-07-21T04:02:53;19.90;99.90
1301;DHT22;59099;48.806;9.160;2022-07-21T04:05:20;19.80;99.90
1301;DHT22;59099;48.806;9.160;2022-07-21T04:07:49;19.80;99.90
1301;DHT22;59099;48.806;9.160;2022-07-21T04:10:19;19.80;99.90
1301;DHT22;59099;48.806;9.160;2022-07-21T04:12:46;19.80;99.90
1301;DHT22;59099;48.806;9.160;2022-07-21T04:15:12;20.10;99.90
1301;DHT22;59099;48.806;9.160;2022-07-21T04:17:39;20.10;99.90
1301;DHT22;59099;48.806;9.160;2022-07-21T04:20:08;20.00;99.90
1301;DHT22;59099;48.806;9.160;2022-07-21T04:22:34;20.00;99.90
1301;DHT22;59099;48.806;9.160;2022-07-21T04:25:00;20.00;99.90
1301;DHT22;59099;48.806;9.160;2022-07-21T04:27:26;19.90;99.90
1301;DHT22;59099;48.806;9.160;2022-07-21T04:29:52;19.90;99.90
1301;DHT22;59099;48.806;9.160;2022-07-21T04:32:19;19.80;99.90
1301;DHT22;59099;48.806;9.160;2022-07-21T04:34:45;19.80;99.90
1301;DHT22;59099;48.806;9.160;2022-07-21T04:37:11;19.90;99.90
1301;DHT22;59099;48.806;9.160;2022-07-21T04:39:36;19.90;99.90
1301;DHT22;59099;48.806;9.160;2022-07-21T04:42:02;19.90;99.90
1301;DHT22;59099;48.806;9.160;2022-07-21T04:44:28;19.80;99.90
1301;DHT22;59099;48.806;9.160;2022-07-21T04:46:54;19.80;99.90
1301;DHT22;59099;48.806;9.160;2022-07-21T04:49:20;19.70;99.90
1301;DHT22;59099;48.806;9.160;2022-07-21T04:51:46;19.60;99.90
1301;DHT22;59099;48.806;9.160;2022-07-21T04:54:11;19.60;99.90
1301;DHT22;59099;48.806;9.160;2022-07-21T04:56:43;19.50;99.90
1301;DHT22;59099;48.806;9.160;2022-07-21T04:59:09;19.40;99.90
1301;DHT22;59099;48.806;9.160;2022-07-21T05:01:36;19.50;99.90
1301;DHT22;59099;48.806;9.160;2022-07-21T05:04:02;19.60;99.90
1301;DHT22;59099;48.806;9.160;2022-07-21T05:06:28;19.50;99.90
1301;DHT22;59099;48.806;9.160;2022-07-21T05:08:54;19.40;99.90
1301;DHT22;59099;48.806;9.160;2022-07-21T05:11:20;19.40;99.90
1301;DHT22;59099;48.806;9.160;2022-07-21T05:13:45;19.50;99.90
1301;DHT22;59099;48.806;9.160;2022-07-21T05:16:11;19.40;99.90
1301;DHT22;59099;48.806;9.160;2022-07-21T05:18:37;19.60;99.90
1301;DHT22;59099;48.806;9.160;2022-07-21T05:21:03;19.70;99.90
1301;DHT22;59099;48.806;9.160;2022-07-21T05:23:29;19.70;99.90
1301;DHT22;59099;48.806;9.160;2022-07-21T05:25:55;19.80;99.90
1301;DHT22;59099;48.806;9.160;2022-07-21T05:28:21;19.80;99.90
1301;DHT22;59099;48.806;9.160;2022-07-21T05:30:46;19.90;99.90
1301;DHT22;59099;48.806;9.160;2022-07-21T05:33:12;19.90;99.90
1301;DHT22;59099;48.806;9.160;2022-07-21T05:35:38;19.90;99.90
1301;DHT22;59099;48.806;9.160;2022-07-21T05:38:04;20.00;99.90
1301;DHT22;59099;48.806;9.160;2022-07-21T05:40:30;20.10;99.90
1301;DHT22;59099;48.806;9.160;2022-07-21T05:42:56;20.10;99.90
1301;DHT22;59099;48.806;9.160;2022-07-21T05:45:22;20.20;99.90
1301;DHT22;59099;48.806;9.160;2022-07-21T05:47:47;20.30;99.90
1301;DHT22;59099;48.806;9.160;2022-07-21T05:50:13;20.20;99.90
1301;DHT22;59099;48.806;9.160;2022-07-21T05:52:39;20.30;99.90
1301;DHT22;59099;48.806;9.160;2022-07-21T05:55:06;20.30;99.90
1301;DHT22;59099;48.806;9.160;2022-07-21T05:57:32;20.30;99.90
1301;DHT22;59099;48.806;9.160;2022-07-21T05:59:57;20.40;99.90
1301;DHT22;59099;48.806;9.160;2022-07-21T06:02:40;20.40;99.90
1301;DHT22;59099;48.806;9.160;2022-07-21T06:05:06;20.40;99.90
1301;DHT22;59099;48.806;9.160;2022-07-21T06:07:34;20.40;99.90
1301;DHT22;59099;48.806;9.160;2022-07-21T06:10:00;20.40;99.90
1301;DHT22;59099;48.806;9.160;2022-07-21T06:12:26;20.40;99.90
1301;DHT22;59099;48.806;9.160;2022-07-21T06:14:52;20.50;99.90
1301;DHT22;59099;48.806;9.160;2022-07-21T06:17:18;20.50;99.90
1301;DHT22;59099;48.806;9.160;2022-07-21T06:19:44;20.60;99.90
1301;DHT22;59099;48.806;9.160;2022-07-21T06:22:10;20.70;99.90
1301;DHT22;59099;48.806;9.160;2022-07-21T06:24:35;20.90;99.90
1301;DHT22;59099;48.806;9.160;2022-07-21T06:27:01;20.90;99.90
1301;DHT22;59099;48.806;9.160;2022-07-21T06:29:27;21.10;99.90
1301;DHT22;59099;48.806;9.160;2022-07-21T06:31:53;21.20;99.90
1301;DHT22;59099;48.806;9.160;2022-07-21T06:34:19;21.30;99.90
1301;DHT22;59099;48.806;9.160;2022-07-21T06:36:44;21.30;99.90
1301;DHT22;59099;48.806;9.160;2022-07-21T06:39:10;21.50;99.90
1301;DHT22;59099;48.806;9.160;2022-07-21T06:41:39;21.60;99.90
1301;DHT22;59099;48.806;9.160;2022-07-21T06:44:11;21.70;99.90
1301;DHT22;59099;48.806;9.160;2022-07-21T06:46:37;21.60;99.90
1301;DHT22;59099;48.806;9.160;2022-07-21T06:49:03;21.70;99.90
1301;DHT22;59099;48.806;9.160;2022-07-21T06:51:29;21.70;99.90
1301;DHT22;59099;48.806;9.160;2022-07-21T06:53:55;21.70;99.90
1301;DHT22;59099;48.806;9.160;2022-07-21T06:56:21;21.70;99.90
1301;DHT22;59099;48.806;9.160;2022-07-21T06:58:47;21.70;99.90
1301;DHT22;59099;48.806;9.160;2022-07-21T07:01:13;21.70;99.90
1301;DHT22;59099;48.806;9.160;2022-07-21T07:03:42;21.70;99.90
1301;DHT22;59099;48.806;9.160;2022-07-21T07:06:17;21.70;99.90
1301;DHT22;59099;48.806;9.160;2022-07-21T07:08:43;21.90;99.90
1301;DHT22;59099;48.806;9.160;2022-07-21T07:11:09;21.90;99.90
1301;DHT22;59099;48.806;9.160;2022-07-21T07:13:35;21.90;99.90
1301;DHT22;59099;48.806;9.160;2022-07-21T07:16:01;21.90;99.90
1301;DHT22;59099;48.806;9.160;2022-07-21T07:18:27;21.90;99.90
1301;DHT22;59099;48.806;9.160;2022-07-21T07:20:52;21.90;99.90
1301;DHT22;59099;48.806;9.160;2022-07-21T07:23:18;22.00;99.90
1301;DHT22;59099;48.806;9.160;2022-07-21T07:25:44;22.10;99.90
1301;DHT22;59099;48.806;9.160;2022-07-21T07:28:10;22.20;99.90
1301;DHT22;59099;48.806;9.160;2022-07-21T07:30:36;22.30;99.90
1301;DHT22;59099;48.806;9.160;2022-07-21T07:33:02;22.20;99.90
1301;DHT22;59099;48.806;9.160;2022-07-21T07:35:27;22.30;99.90
1301;DHT22;59099;48.806;9.160;2022-07-21T07:37:53;22.60;99.90
1301;DHT22;59099;48.806;9.160;2022-07-21T07:40:21;22.80;99.90
1301;DHT22;59099;48.806;9.160;2022-07-21T07:42:47;23.10;99.90
1301;DHT22;59099;48.806;9.160;2022-07-21T07:45:13;23.30;99.90
1301;DHT22;59099;48.806;9.160;2022-07-21T07:47:39;23.30;99.90
1301;DHT22;59099;48.806;9.160;2022-07-21T07:50:07;23.40;99.90
1301;DHT22;59099;48.806;9.160;2022-07-21T07:52:35;23.50;99.90
1301;DHT22;59099;48.806;9.160;2022-07-21T07:55:01;23.70;99.90
1301;DHT22;59099;48.806;9.160;2022-07-21T07:57:30;23.70;99.90
1301;DHT22;59099;48.806;9.160;2022-07-21T07:59:56;23.80;99.90
1301;DHT22;59099;48.806;9.160;2022-07-21T08:02:22;23.70;99.90
1301;DHT22;59099;48.806;9.160;2022-07-21T08:04:47;23.70;99.90
1301;DHT22;59099;48.806;9.160;2022-07-21T08:07:13;23.80;99.90
1301;DHT22;59099;48.806;9.160;2022-07-21T08:09:40;24.10;99.90
1301;DHT22;59099;48.806;9.160;2022-07-21T08:12:06;24.20;99.90
1301;DHT22;59099;48.806;9.160;2022-07-21T08:14:32;24.30;99.90
1301;DHT22;59099;48.806;9.160;2022-07-21T08:17:01;24.50;99.90
1301;DHT22;59099;48.806;9.160;2022-07-21T08:19:27;24.70;99.90
1301;DHT22;59099;48.806;9.160;2022-07-21T08:21:53;24.50;99.90
1301;DHT22;59099;48.806;9.160;2022-07-21T08:24:19;24.30;99.90
1301;DHT22;59099;48.806;9.160;2022-07-21T08:26:44;24.20;99.90
1301;DHT22;59099;48.806;9.160;2022-07-21T08:29:11;24.10;99.90
1301;DHT22;59099;48.806;9.160;2022-07-21T08:31:37;23.80;99.90
1301;DHT22;59099;48.806;9.160;2022-07-21T08:34:02;23.70;99.90
1301;DHT22;59099;48.806;9.160;2022-07-21T08:36:28;23.60;99.90
1301;DHT22;59099;48.806;9.160;2022-07-21T08:38:54;23.60;99.90
1301;DHT22;59099;48.806;9.160;2022-07-21T08:41:20;23.70;99.90
1301;DHT22;59099;48.806;9.160;2022-07-21T08:43:46;23.80;99.90
1301;DHT22;59099;48.806;9.160;2022-07-21T08:46:15;24.10;99.90
1301;DHT22;59099;48.806;9.160;2022-07-21T08:48:42;24.40;99.90
1301;DHT22;59099;48.806;9.160;2022-07-21T08:51:08;24.40;99.90
1301;DHT22;59099;48.806;9.160;2022-07-21T08:53:34;24.40;99.90
1301;DHT22;59099;48.806;9.160;2022-07-21T08:56:00;24.40;99.90
1301;DHT22;59099;48.806;9.160;2022-07-21T08:58:25;24.40;99.90
1301;DHT22;59099;48.806;9.160;2022-07-21T09:00:51;24.50;99.90
1301;DHT22;59099;48.806;9.160;2022-07-21T09:03:22;24.40;99.90
1301;DHT22;59099;48.806;9.160;2022-07-21T09:08:30;24.50;99.90
1301;DHT22;59099;48.806;9.160;2022-07-21T09:13:35;24.40;99.90
1301;DHT22;59099;48.806;9.160;2022-07-21T09:16:01;24.70;99.90
1301;DHT22;59099;48.806;9.160;2022-07-21T09:18:27;25.00;99.90
1301;DHT22;59099;48.806;9.160;2022-07-21T09:20:53;25.30;99.90
1301;DHT22;59099;48.806;9.160;2022-07-21T09:23:22;25.40;99.90
1301;DHT22;59099;48.806;9.160;2022-07-21T09:25:53;25.40;99.90
1301;DHT22;59099;48.806;9.160;2022-07-21T09:28:28;25.20;99.90
1301;DHT22;59099;48.806;9.160;2022-07-21T09:36:00;24.90;99.90
1301;DHT22;59099;48.806;9.160;2022-07-21T09:38:28;24.90;99.90
1301;DHT22;59099;48.806;9.160;2022-07-21T09:40:54;25.00;99.90
1301;DHT22;59099;48.806;9.160;2022-07-21T09:43:31;25.00;99.90
1301;DHT22;59099;48.806;9.160;2022-07-21T09:46:03;25.10;99.90
1301;DHT22;59099;48.806;9.160;2022-07-21T09:48:37;25.00;99.90
1301;DHT22;59099;48.806;9.160;2022-07-21T09:51:24;25.10;99.90
1301;DHT22;59099;48.806;9.160;2022-07-21T09:53:52;25.40;99.90
1301;DHT22;59099;48.806;9.160;2022-07-21T09:56:23;25.60;99.90
1301;DHT22;59099;48.806;9.160;2022-07-21T09:58:51;25.80;99.90
1301;DHT22;59099;48.806;9.160;2022-07-21T10:01:17;25.70;99.90
1301;DHT22;59099;48.806;9.160;2022-07-21T10:03:45;25.70;99.90
1301;DHT22;59099;48.806;9.160;2022-07-21T10:06:12;25.70;99.90
1301;DHT22;59099;48.806;9.160;2022-07-21T10:08:38;25.90;99.90
1301;DHT22;59099;48.806;9.160;2022-07-21T10:11:05;26.20;99.90
1301;DHT22;59099;48.806;9.160;2022-07-21T10:13:31;26.30;99.90
1301;DHT22;59099;48.806;9.160;2022-07-21T10:15:58;26.50;99.90
1301;DHT22;59099;48.806;9.160;2022-07-21T10:18:37;26.60;99.90
1301;DHT22;59099;48.806;9.160;2022-07-21T10:21:17;26.50;99.90
1301;DHT22;59099;48.806;9.160;2022-07-21T10:23:50;26.50;99.90
1301;DHT22;59099;48.806;9.160;2022-07-21T10:26:18;26.50;99.90
1301;DHT22;59099;48.806;9.160;2022-07-21T10:28:44;26.40;99.90
1301;DHT22;59099;48.806;9.160;2022-07-21T10:31:21;26.60;99.90
1301;DHT22;59099;48.806;9.160;2022-07-21T10:41:41;28.60;99.90
1301;DHT22;59099;48.806;9.160;2022-07-21T10:49:57;30.90;98.80
1301;DHT22;59099;48.806;9.160;2022-07-21T10:55:22;32.40;92.00
1301;DHT22;59099;48.806;9.160;2022-07-21T11:01:05;31.70;85.30
1301;DHT22;59099;48.806;9.160;2022-07-21T11:10:33;30.10;90.60
1301;DHT22;59099;48.806;9.160;2022-07-21T11:12:59;29.80;91.10
1301;DHT22;59099;48.806;9.160;2022-07-21T11:18:09;30.10;90.30
1301;DHT22;59099;48.806;9.160;2022-07-21T11:20:35;29.80;87.60
1301;DHT22;59099;48.806;9.160;2022-07-21T11:23:00;29.40;84.50
1301;DHT22;59099;48.806;9.160;2022-07-21T11:25:31;29.20;89.40
1301;DHT22;59099;48.806;9.160;2022-07-21T11:27:58;29.00;87.90
1301;DHT22;59099;48.806;9.160;2022-07-21T11:30:24;28.90;87.30
1301;DHT22;59099;48.806;9.160;2022-07-21T11:32:51;29.30;87.10
1301;DHT22;59099;48.806;9.160;2022-07-21T11:35:17;29.60;97.90
1301;DHT22;59099;48.806;9.160;2022-07-21T11:37:45;30.20;82.90
1301;DHT22;59099;48.806;9.160;2022-07-21T11:40:16;31.50;79.20
1301;DHT22;59099;48.806;9.160;2022-07-21T11:42:51;32.00;84.10
1301;DHT22;59099;48.806;9.160;2022-07-21T11:45:23;31.50;88.60
1301;DHT22;59099;48.806;9.160;2022-07-21T11:47:55;31.60;85.90
1301;DHT22;59099;48.806;9.160;2022-07-21T11:50:21;32.10;82.40
1301;DHT22;59099;48.806;9.160;2022-07-21T11:52:47;32.00;76.50
1301;DHT22;59099;48.806;9.160;2022-07-21T11:55:12;31.80;85.20
1301;DHT22;59099;48.806;9.160;2022-07-21T11:57:43;32.90;75.70
1301;DHT22;59099;48.806;9.160;2022-07-21T12:00:16;32.80;71.70
1301;DHT22;59099;48.806;9.160;2022-07-21T12:02:42;32.00;71.80
1301;DHT22;59099;48.806;9.160;2022-07-21T12:05:09;30.80;72.70
1301;DHT22;59099;48.806;9.160;2022-07-21T12:07:46;30.20;75.20
1301;DHT22;59099;48.806;9.160;2022-07-21T12:10:14;31.20;73.80
1301;DHT22;59099;48.806;9.160;2022-07-21T12:12:46;32.30;71.30
1301;DHT22;59099;48.806;9.160;2022-07-21T12:15:14;33.80;65.80
1301;DHT22;59099;48.806;9.160;2022-07-21T12:23:18;32.40;66.90
1301;DHT22;59099;48.806;9.160;2022-07-21T12:25:44;31.50;67.20
1301;DHT22;59099;48.806;9.160;2022-07-21T12:28:10;31.20;73.70
1301;DHT22;59099;48.806;9.160;2022-07-21T12:30:49;31.10;69.00
1301;DHT22;59099;48.806;9.160;2022-07-21T12:33:17;31.50;77.30
1301;DHT22;59099;48.806;9.160;2022-07-21T12:35:46;31.30;68.30
1301;DHT22;59099;48.806;9.160;2022-07-21T12:38:21;31.20;69.90
1301;DHT22;59099;48.806;9.160;2022-07-21T12:40:49;32.10;69.10
1301;DHT22;59099;48.806;9.160;2022-07-21T12:43:21;32.90;70.60
1301;DHT22;59099;48.806;9.160;2022-07-21T12:45:57;33.60;73.80
1301;DHT22;59099;48.806;9.160;2022-07-21T12:48:34;33.70;71.80
1301;DHT22;59099;48.806;9.160;2022-07-21T12:51:22;33.40;67.90
1301;DHT22;59099;48.806;9.160;2022-07-21T12:53:52;33.10;65.10
1301;DHT22;59099;48.806;9.160;2022-07-21T12:56:24;33.20;75.10
1301;DHT22;59099;48.806;9.160;2022-07-21T12:58:50;33.70;68.30
1301;DHT22;59099;48.806;9.160;2022-07-21T13:01:19;33.70;68.90
1301;DHT22;59099;48.806;9.160;2022-07-21T13:03:45;35.10;71.80
1301;DHT22;59099;48.806;9.160;2022-07-21T13:06:11;36.50;64.90
1301;DHT22;59099;48.806;9.160;2022-07-21T13:08:40;36.80;57.00
1301;DHT22;59099;48.806;9.160;2022-07-21T13:11:08;35.70;58.40
1301;DHT22;59099;48.806;9.160;2022-07-21T13:13:35;34.90;59.90
1301;DHT22;59099;48.806;9.160;2022-07-21T13:16:01;34.70;68.00
1301;DHT22;59099;48.806;9.160;2022-07-21T13:18:31;35.80;60.00
1301;DHT22;59099;48.806;9.160;2022-07-21T13:20:56;36.10;60.10
1301;DHT22;59099;48.806;9.160;2022-07-21T13:23:25;35.60;59.80
1301;DHT22;59099;48.806;9.160;2022-07-21T13:25:51;34.70;62.90
1301;DHT22;59099;48.806;9.160;2022-07-21T13:28:17;33.40;63.20
1301;DHT22;59099;48.806;9.160;2022-07-21T13:30:45;33.00;64.00
1301;DHT22;59099;48.806;9.160;2022-07-21T13:33:12;32.40;66.70
1301;DHT22;59099;48.806;9.160;2022-07-21T13:35:46;32.00;64.70
1301;DHT22;59099;48.806;9.160;2022-07-21T13:38:19;32.20;76.50
1301;DHT22;59099;48.806;9.160;2022-07-21T13:40:44;32.90;66.20
1301;DHT22;59099;48.806;9.160;2022-07-21T13:43:10;34.00;63.30
1301;DHT22;59099;48.806;9.160;2022-07-21T13:45:39;35.10;63.40
1301;DHT22;59099;48.806;9.160;2022-07-21T13:48:05;35.30;63.20
1301;DHT22;59099;48.806;9.160;2022-07-21T13:50:30;35.10;62.50
1301;DHT22;59099;48.806;9.160;2022-07-21T13:52:56;35.70;63.50
1301;DHT22;59099;48.806;9.160;2022-07-21T13:55:22;36.80;59.90
1301;DHT22;59099;48.806;9.160;2022-07-21T13:57:48;37.30;56.90
1301;DHT22;59099;48.806;9.160;2022-07-21T14:00:14;37.50;58.00
1301;DHT22;59099;48.806;9.160;2022-07-21T14:02:45;37.80;55.00
1301;DHT22;59099;48.806;9.160;2022-07-21T14:05:18;38.70;51.90
1301;DHT22;59099;48.806;9.160;2022-07-21T14:07:44;40.10;51.90
1301;DHT22;59099;48.806;9.160;2022-07-21T14:10:10;40.50;50.30
1301;DHT22;59099;48.806;9.160;2022-07-21T14:12:36;40.00;49.60
1301;DHT22;59099;48.806;9.160;2022-07-21T14:15:03;38.80;49.40
1301;DHT22;59099;48.806;9.160;2022-07-21T14:17:28;37.80;54.40
1301;DHT22;59099;48.806;9.160;2022-07-21T14:19:54;37.00;55.20
1301;DHT22;59099;48.806;9.160;2022-07-21T14:22:20;36.50;52.10
1301;DHT22;59099;48.806;9.160;2022-07-21T14:24:48;35.70;53.30
1301;DHT22;59099;48.806;9.160;2022-07-21T14:27:32;34.00;53.60
1301;DHT22;59099;48.806;9.160;2022-07-21T14:29:58;33.40;56.00
1301;DHT22;59099;48.806;9.160;2022-07-21T14:32:24;32.90;56.50
1301;DHT22;59099;48.806;9.160;2022-07-21T14:34:51;32.80;56.70
1301;DHT22;59099;48.806;9.160;2022-07-21T14:37:17;32.30;57.10
1301;DHT22;59099;48.806;9.160;2022-07-21T14:39:49;32.10;57.20
1301;DHT22;59099;48.806;9.160;2022-07-21T14:42:16;32.00;60.70
1301;DHT22;59099;48.806;9.160;2022-07-21T14:44:43;32.10;59.80
1301;DHT22;59099;48.806;9.160;2022-07-21T14:47:09;33.20;66.70
1301;DHT22;59099;48.806;9.160;2022-07-21T14:49:36;34.90;57.30
1301;DHT22;59099;48.806;9.160;2022-07-21T14:52:05;36.40;56.20
1301;DHT22;59099;48.806;9.160;2022-07-21T14:54:31;35.80;53.00
1301;DHT22;59099;48.806;9.160;2022-07-21T14:56:57;35.20;53.20
1301;DHT22;59099;48.806;9.160;2022-07-21T14:59:22;34.00;55.30
1301;DHT22;59099;48.806;9.160;2022-07-21T15:01:48;33.20;60.50
1301;DHT22;59099;48.806;9.160;2022-07-21T15:04:14;32.70;58.50
1301;DHT22;59099;48.806;9.160;2022-07-21T15:06:40;31.70;64.80
1301;DHT22;59099;48.806;9.160;2022-07-21T15:09:06;31.50;58.50
1301;DHT22;59099;48.806;9.160;2022-07-21T15:11:32;31.30;61.40
1301;DHT22;59099;48.806;9.160;2022-07-21T15:13:58;31.50;61.30
1301;DHT22;59099;48.806;9.160;2022-07-21T15:16:24;31.70;58.70
1301;DHT22;59099;48.806;9.160;2022-07-21T15:18:49;31.90;59.20
1301;DHT22;59099;48.806;9.160;2022-07-21T15:21:15;32.50;66.10
1301;DHT22;59099;48.806;9.160;2022-07-21T15:23:41;32.50;60.20
1301;DHT22;59099;48.806;9.160;2022-07-21T15:26:07;32.20;59.90
1301;DHT22;59099;48.806;9.160;2022-07-21T15:28:32;32.10;59.40
1301;DHT22;59099;48.806;9.160;2022-07-21T15:30:58;32.20;59.60
1301;DHT22;59099;48.806;9.160;2022-07-21T15:33:24;33.50;58.40
1301;DHT22;59099;48.806;9.160;2022-07-21T15:35:50;33.80;56.30
1301;DHT22;59099;48.806;9.160;2022-07-21T15:38:23;34.20;60.90
1301;DHT22;59099;48.806;9.160;2022-07-21T15:40:49;35.60;55.70
1301;DHT22;59099;48.806;9.160;2022-07-21T15:43:16;37.00;54.90
1301;DHT22;59099;48.806;9.160;2022-07-21T15:45:45;36.90;51.80
1301;DHT22;59099;48.806;9.160;2022-07-21T15:48:11;36.30;57.60
1301;DHT22;59099;48.806;9.160;2022-07-21T15:50:38;36.20;56.40
1301;DHT22;59099;48.806;9.160;2022-07-21T15:53:05;35.70;53.90
1301;DHT22;59099;48.806;9.160;2022-07-21T15:55:31;34.90;57.00
1301;DHT22;59099;48.806;9.160;2022-07-21T15:57:57;34.10;55.50
1301;DHT22;59099;48.806;9.160;2022-07-21T16:00:24;33.80;54.70
1301;DHT22;59099;48.806;9.160;2022-07-21T16:02:50;34.30;53.20
1301;DHT22;59099;48.806;9.160;2022-07-21T16:05:19;34.20;55.40
1301;DHT22;59099;48.806;9.160;2022-07-21T16:07:47;33.00;55.40
1301;DHT22;59099;48.806;9.160;2022-07-21T16:10:14;33.00;64.30
1301;DHT22;59099;48.806;9.160;2022-07-21T16:12:40;34.20;59.40
1301;DHT22;59099;48.806;9.160;2022-07-21T16:15:07;35.20;56.90
1301;DHT22;59099;48.806;9.160;2022-07-21T16:17:33;35.20;54.30
1301;DHT22;59099;48.806;9.160;2022-07-21T16:19:59;34.20;53.90
1301;DHT22;59099;48.806;9.160;2022-07-21T16:22:25;33.70;55.30
1301;DHT22;59099;48.806;9.160;2022-07-21T16:24:51;34.20;56.20
1301;DHT22;59099;48.806;9.160;2022-07-21T16:27:16;34.50;57.60
1301;DHT22;59099;48.806;9.160;2022-07-21T16:29:42;34.60;55.00
1301;DHT22;59099;48.806;9.160;2022-07-21T16:32:08;35.00;56.50
1301;DHT22;59099;48.806;9.160;2022-07-21T16:34:34;35.50;53.90
1301;DHT22;59099;48.806;9.160;2022-07-21T16:37:01;35.00;52.90